Time;durP1;ratioP1;P1;durP2;ratioP2;P2;SDS_P1;SDS_P2;PMS_P1;PMS_P2;Temp;Humidity;BMP_temperature;BMP_pressure;BME280_temperature;BME280_humidity;BME280_pressure;Samples;Min_cycle;Max_cycle;Signal;HPM_P1;HPM_P2
2021/01/09 00:01:39;;;;;;;16.23;15.30;;;13.90;99.90;;;;;;4153094;34;20110;-90
2021/01/09 00:04:08;;;;;;;16.30;14.73;;;14.10;99.90;;;;;;4168227;34;20123;-88
2021/01/09 00:06:38;;;;;;;16.95;15.75;;;14.10;99.90;;;;;;4147944;34;20122;-87
2021/01/09 00:09:07;;;;;;;18.45;16.77;;;13.80;99.90;;;;;;4149744;34;20062;-88
2021/01/09 00:11:35;;;;;;;12.80;11.75;;;13.90;99.90;;;;;;4154845;34;20107;-93
2021/01/09 00:14:04;;;;;;;18.52;16.75;;;13.80;99.90;;;;;;4158622;34;20117;-85
2021/01/09 00:16:32;;;;;;;25.70;24.00;;;13.80;99.90;;;;;;4144446;34;20469;-88
2021/01/09 00:19:00;;;;;;;24.27;22.62;;;13.80;99.90;;;;;;4154872;34;20080;-92
2021/01/09 00:21:36;;;;;;;4.85;2.10;;;13.70;99.90;;;;;;4170156;34;20090;-93
2021/01/09 00:24:08;;;;;;;11.77;5.37;;;13.60;99.90;;;;;;4147948;34;20088;-88
2021/01/09 00:26:36;;;;;;;24.15;22.45;;;13.60;99.90;;;;;;4151742;34;20112;-88
2021/01/09 00:29:05;;;;;;;9.77;4.18;;;13.50;99.90;;;;;;4133925;34;20056;-86
2021/01/09 00:31:33;;;;;;;40.65;37.00;;;13.40;99.90;;;;;;4162198;34;20082;-91
2021/01/09 00:34:03;;;;;;;20.52;19.08;;;13.30;99.90;;;;;;4164004;34;20087;-90
2021/01/09 00:36:31;;;;;;;21.33;19.45;;;13.30;99.90;;;;;;4157745;34;20291;-86
2021/01/09 00:38:59;;;;;;;18.52;17.08;;;13.10;99.90;;;;;;4155266;34;20109;-90
2021/01/09 00:41:31;;;;;;;19.17;17.37;;;13.10;99.90;;;;;;4156465;34;20060;-89
2021/01/09 00:44:02;;;;;;;15.52;14.52;;;13.00;99.90;;;;;;4133200;34;20069;-86
2021/01/09 00:46:30;;;;;;;16.05;14.85;;;12.70;99.90;;;;;;4151185;34;20123;-85
2021/01/09 00:48:59;;;;;;;19.33;18.12;;;12.90;99.90;;;;;;4149105;34;20091;-85
2021/01/09 00:51:27;;;;;;;26.17;24.42;;;12.90;99.90;;;;;;4142967;34;20397;-88
2021/01/09 00:53:55;;;;;;;24.67;22.87;;;12.70;99.90;;;;;;4156448;34;20045;-89
2021/01/09 00:56:23;;;;;;;29.33;27.27;;;12.70;99.90;;;;;;4140055;34;20180;-93
2021/01/09 00:58:51;;;;;;;26.23;24.20;;;12.80;99.90;;;;;;4166005;34;20419;-85
2021/01/09 01:01:19;;;;;;;12.77;11.38;;;12.50;99.90;;;;;;4141639;34;20122;-91
2021/01/09 01:03:47;;;;;;;9.98;9.25;;;12.50;99.90;;;;;;4168785;34;20135;-88
2021/01/09 01:06:22;;;;;;;10.07;9.30;;;12.60;99.90;;;;;;4157807;34;20479;-91
2021/01/09 01:08:52;;;;;;;11.27;10.20;;;12.50;99.90;;;;;;4158658;34;20524;-89
2021/01/09 01:11:25;;;;;;;16.73;15.25;;;12.60;99.90;;;;;;4140123;34;20387;-92
2021/01/09 01:13:54;;;;;;;12.67;11.43;;;12.50;99.90;;;;;;4136726;34;20293;-88
2021/01/09 01:16:23;;;;;;;15.80;14.85;;;12.70;99.90;;;;;;4141061;34;20666;-91
2021/01/09 01:18:52;;;;;;;12.98;11.88;;;12.60;99.90;;;;;;4143864;34;20114;-87
2021/01/09 01:21:21;;;;;;;13.40;12.37;;;12.60;99.90;;;;;;4161534;34;20091;-88
2021/01/09 01:23:49;;;;;;;16.90;15.45;;;12.60;99.90;;;;;;4167299;34;20075;-89
2021/01/09 01:26:17;;;;;;;19.08;17.20;;;12.70;99.90;;;;;;4164146;34;20068;-86
2021/01/09 01:28:46;;;;;;;17.42;15.88;;;12.80;99.90;;;;;;4142293;34;20068;-85
2021/01/09 01:31:14;;;;;;;17.23;15.75;;;13.10;99.90;;;;;;4155131;34;20242;-90
2021/01/09 01:33:42;;;;;;;16.73;15.38;;;13.20;99.90;;;;;;4137210;34;20145;-89
2021/01/09 01:36:11;;;;;;;25.45;23.73;;;13.20;99.90;;;;;;4152436;34;20127;-87
2021/01/09 01:38:40;;;;;;;16.90;15.68;;;13.30;99.90;;;;;;4149846;34;20680;-87
2021/01/09 01:41:09;;;;;;;17.15;16.00;;;13.20;99.90;;;;;;4151213;34;20446;-87
2021/01/09 01:43:38;;;;;;;16.05;14.80;;;13.10;99.90;;;;;;4141971;34;20092;-88
2021/01/09 01:46:09;;;;;;;16.55;15.48;;;13.20;99.90;;;;;;4145241;34;20128;-91
2021/01/09 01:48:39;;;;;;;16.60;15.32;;;13.20;99.90;;;;;;4126776;34;20717;-85
2021/01/09 01:51:07;;;;;;;20.17;18.70;;;13.20;99.90;;;;;;4135622;34;20076;-90
2021/01/09 01:53:34;;;;;;;18.17;17.02;;;13.40;99.90;;;;;;4140298;34;20143;-91
2021/01/09 01:56:03;;;;;;;18.30;16.70;;;13.30;99.90;;;;;;4162743;34;20095;-87
2021/01/09 01:58:31;;;;;;;22.67;21.17;;;13.60;99.90;;;;;;4135469;34;20119;-91
2021/01/09 02:00:59;;;;;;;25.88;24.15;;;13.40;99.90;;;;;;4133723;34;20365;-86
2021/01/09 02:03:28;;;;;;;20.85;19.52;;;13.50;99.90;;;;;;4149811;34;20096;-90
2021/01/09 02:06:15;;;;;;;24.58;22.50;;;13.40;99.90;;;;;;4155163;34;20064;-85
2021/01/09 02:09:00;;;;;;;20.70;19.17;;;13.40;99.90;;;;;;4155022;34;20095;-89
2021/01/09 02:11:47;;;;;;;;;;;13.30;99.90;;;;;;4148421;34;20064;-90
2021/01/09 02:14:24;;;;;;;22.45;20.90;;;13.20;99.90;;;;;;4153097;34;19995;-91
2021/01/09 02:16:55;;;;;;;12.50;11.18;;;13.20;99.90;;;;;;4143584;34;20511;-87
2021/01/09 02:19:25;;;;;;;15.60;7.85;;;13.40;99.90;;;;;;4151720;34;20069;-89
2021/01/09 02:21:59;;;;;;;5.55;2.22;;;13.20;99.90;;;;;;4126503;34;20072;-89
2021/01/09 02:24:27;;;;;;;21.30;20.30;;;13.00;99.90;;;;;;4153858;34;20751;-89
2021/01/09 02:26:56;;;;;;;19.77;17.98;;;13.10;99.90;;;;;;4145203;34;20064;-91
2021/01/09 02:29:24;;;;;;;11.07;4.47;;;13.00;99.90;;;;;;4143014;34;20099;-88
2021/01/09 02:32:00;;;;;;;3.58;1.17;;;12.90;99.90;;;;;;4139080;34;20208;-87
2021/01/09 02:34:35;;;;;;;10.05;9.25;;;12.80;99.90;;;;;;4151900;34;20629;-91
2021/01/09 02:37:03;;;;;;;;;;;12.80;99.90;;;;;;4141766;34;20040;-87
2021/01/09 02:39:32;;;;;;;6.28;5.55;;;12.70;99.90;;;;;;4153933;34;19991;-88
2021/01/09 02:42:01;;;;;;;18.20;16.35;;;12.70;99.90;;;;;;4146912;34;20041;-86
2021/01/09 02:44:29;;;;;;;13.60;12.60;;;12.70;99.90;;;;;;4139254;34;20052;-91
2021/01/09 02:46:59;;;;;;;20.20;18.98;;;12.70;99.90;;;;;;4159152;34;20129;-85
2021/01/09 02:49:27;;;;;;;22.80;21.58;;;12.70;99.90;;;;;;4133005;34;20717;-88
2021/01/09 02:51:55;;;;;;;21.92;20.58;;;12.70;99.90;;;;;;4151295;34;20123;-89
2021/01/09 02:54:23;;;;;;;21.98;20.40;;;12.80;99.90;;;;;;4152061;34;20060;-85
2021/01/09 02:56:51;;;;;;;21.98;20.17;;;12.80;99.90;;;;;;4155531;34;20061;-86
2021/01/09 02:59:19;;;;;;;18.83;17.73;;;12.80;99.90;;;;;;4141728;34;20061;-87
2021/01/09 03:01:49;;;;;;;21.48;20.35;;;12.90;99.90;;;;;;4146956;34;20485;-89
2021/01/09 03:04:17;;;;;;;19.33;17.37;;;13.00;99.90;;;;;;4149633;34;20117;-87
2021/01/09 03:06:45;;;;;;;24.00;22.05;;;13.30;99.90;;;;;;4145620;34;20069;-87
2021/01/09 03:09:13;;;;;;;23.25;21.62;;;13.50;99.90;;;;;;4136381;34;20140;-86
2021/01/09 03:36:32;;;;;;;22.70;21.00;;;13.10;99.90;;;;;;4329766;28;20595;-88
2021/01/09 03:39:00;;;;;;;16.73;15.32;;;13.00;99.90;;;;;;4133450;34;20571;-88
2021/01/09 03:41:34;;;;;;;19.58;18.23;;;12.90;99.90;;;;;;4152601;34;20080;-89
2021/01/09 03:44:02;;;;;;;19.85;18.37;;;13.00;99.90;;;;;;4130447;34;20120;-92
2021/01/09 03:46:31;;;;;;;24.08;22.37;;;12.90;99.90;;;;;;4140971;34;20202;-87
2021/01/09 03:48:59;;;;;;;4.97;3.92;;;12.80;99.90;;;;;;4149654;34;20082;-85
2021/01/09 03:51:27;;;;;;;22.33;20.92;;;12.70;99.90;;;;;;4139784;34;20060;-90
2021/01/09 03:53:55;;;;;;;12.25;11.52;;;12.50;99.90;;;;;;4136793;34;20131;-85
2021/01/09 03:56:23;;;;;;;16.80;15.73;;;12.50;99.90;;;;;;4122981;34;20116;-94
2021/01/09 03:58:52;;;;;;;8.73;7.80;;;12.40;99.90;;;;;;4134878;34;20398;-89
2021/01/09 04:01:20;;;;;;;20.75;19.55;;;12.30;99.90;;;;;;4139652;34;20115;-88
2021/01/09 04:03:48;;;;;;;22.33;20.50;;;12.20;99.90;;;;;;4153212;34;20131;-93
2021/01/09 04:06:16;;;;;;;18.92;12.55;;;12.10;99.90;;;;;;4126908;34;20082;-88
2021/01/09 04:08:44;;;;;;;9.38;8.73;;;12.30;99.90;;;;;;4154228;34;20051;-89
2021/01/09 04:11:13;;;;;;;20.52;18.90;;;;;;;;;;4150224;34;20079;-91
2021/01/09 04:13:42;;;;;;;19.42;17.92;;;12.00;99.90;;;;;;4145285;34;20201;-86
2021/01/09 04:16:10;;;;;;;11.60;7.20;;;11.90;99.90;;;;;;4149682;34;20109;-88
2021/01/09 04:18:39;;;;;;;6.00;4.93;;;12.50;99.90;;;;;;4158498;34;20190;-86
2021/01/09 04:21:07;;;;;;;26.05;24.60;;;12.80;99.90;;;;;;4155451;34;20168;-87
2021/01/09 04:23:35;;;;;;;26.42;24.63;;;13.00;99.90;;;;;;4142947;34;20123;-89
2021/01/09 04:26:04;;;;;;;21.52;20.42;;;13.00;99.90;;;;;;4151389;34;20122;-91
2021/01/09 04:28:32;;;;;;;24.42;23.02;;;12.90;99.90;;;;;;4143340;34;20094;-88
2021/01/09 06:05:51;;;;;;;7.65;3.55;;;12.40;99.90;;;;;;4824524;28;20079;-91
2021/01/09 06:08:27;;;;;;;4.32;0.70;;;12.40;99.90;;;;;;4139075;34;20057;-90
2021/01/09 06:11:03;;;;;;;2.97;0.88;;;12.30;99.90;;;;;;4131888;34;20488;-87
2021/01/09 06:13:35;;;;;;;1.65;0.80;;;12.40;99.90;;;;;;4118750;34;20091;-86
2021/01/09 06:16:05;;;;;;;2.17;1.30;;;12.30;99.90;;;;;;4129572;34;20160;-90
2021/01/09 06:18:35;;;;;;;9.32;1.10;;;11.70;99.90;;;;;;4120347;34;20158;-88
2021/01/09 06:21:04;;;;;;;11.18;2.33;;;12.20;99.90;;;;;;4123081;34;20088;-87
2021/01/09 06:23:32;;;;;;;2.78;1.67;;;12.40;99.90;;;;;;4138924;34;20136;-92
2021/01/09 06:26:02;;;;;;;2.35;1.33;;;12.30;99.90;;;;;;4136732;34;20076;-88
2021/01/09 06:28:37;;;;;;;3.37;1.08;;;12.20;99.90;;;;;;4123584;34;20096;-91
2021/01/09 06:31:19;;;;;;;3.33;1.70;;;12.20;99.90;;;;;;4130710;28;20057;-87
2021/01/09 06:33:56;;;;;;;1.98;1.87;;;12.10;99.90;;;;;;4129672;28;20037;-89
2021/01/09 06:36:26;;;;;;;1.27;1.08;;;12.30;99.90;;;;;;4116452;34;20061;-89
2021/01/09 06:38:57;;;;;;;1.95;0.35;;;11.70;99.90;;;;;;4118400;34;20084;-89
2021/01/09 06:41:30;;;;;;;1.00;0.40;;;11.80;99.90;;;;;;4128536;28;20042;-89
2021/01/09 06:44:05;;;;;;;0.85;0.43;;;11.80;99.90;;;;;;4116621;34;20100;-87
2021/01/09 06:46:36;;;;;;;0.85;0.65;;;11.80;99.90;;;;;;4143070;28;20059;-87
2021/01/09 06:49:04;;;;;;;0.85;0.40;;;11.70;99.90;;;;;;4127217;34;20486;-87
2021/01/09 06:51:36;;;;;;;1.25;0.60;;;11.70;99.90;;;;;;4148008;34;20032;-86
2021/01/09 06:54:31;;;;;;;0.75;0.60;;;11.70;99.90;;;;;;4118678;34;20049;-86
2021/01/09 06:57:05;;;;;;;2.12;0.50;;;11.70;99.90;;;;;;4138770;34;20158;-86
2021/01/09 07:38:05;;;;;;;1.77;0.60;;;12.40;99.90;;;;;;4531787;29;20094;-87
2021/01/09 07:40:57;;;;;;;2.22;0.82;;;12.80;99.90;;;;;;4133356;34;20092;-85
2021/01/09 07:43:47;;;;;;;5.20;0.80;;;12.80;99.90;;;;;;4126753;34;20682;-86
2021/01/09 07:46:29;;;;;;;1.75;0.60;;;12.70;99.90;;;;;;4122510;34;20627;-91
2021/01/09 07:48:59;;;;;;;4.12;1.10;;;12.90;99.90;;;;;;4133042;34;20076;-90
2021/01/09 07:51:50;;;;;;;4.57;0.70;;;12.50;99.90;;;;;;4142493;34;20112;-88
2021/01/09 07:54:38;;;;;;;0.93;0.50;;;12.50;99.90;;;;;;4136509;34;20192;-91
2021/01/09 07:57:19;;;;;;;2.22;0.80;;;12.60;99.90;;;;;;4137959;34;20154;-90
2021/01/09 08:00:00;;;;;;;2.15;0.80;;;12.60;99.90;;;;;;4140194;34;20434;-91
2021/01/09 08:02:33;;;;;;;1.62;0.60;;;13.00;99.90;;;;;;4136905;34;20061;-85
2021/01/09 08:05:07;;;;;;;1.08;0.60;;;12.90;99.90;;;;;;4145734;34;20077;-87
2021/01/09 08:07:47;;;;;;;6.18;1.33;;;13.00;99.90;;;;;;4131576;34;22005;-89
2021/01/09 08:10:32;;;;;;;0.47;0.47;;;13.30;99.90;;;;;;4126396;34;20063;-85
2021/01/09 08:13:08;;;;;;;0.88;0.60;;;14.20;99.90;;;;;;4124406;34;20135;-91
2021/01/09 08:15:37;;;;;;;3.37;0.93;;;13.90;99.90;;;;;;4138612;34;20582;-89
2021/01/09 08:18:06;;;;;;;3.95;3.65;;;13.90;99.90;;;;;;4140816;34;20086;-86
2021/01/09 08:20:35;;;;;;;8.60;7.12;;;14.80;99.90;;;;;;4122497;34;20135;-90
2021/01/09 08:23:05;;;;;;;4.55;4.22;;;15.30;99.90;;;;;;4134462;34;20061;-90
2021/01/09 08:25:34;;;;;;;9.40;8.52;;;14.10;99.90;;;;;;4125338;34;20435;-92
2021/01/09 08:28:04;;;;;;;7.28;4.80;;;13.70;99.90;;;;;;4123295;34;20142;-88
2021/01/09 08:30:38;;;;;;;18.08;16.87;;;13.70;99.90;;;;;;4124374;34;20120;-89
2021/01/09 08:33:08;;;;;;;15.20;14.07;;;13.80;99.90;;;;;;4140860;34;20398;-88
2021/01/09 08:35:49;;;;;;;18.30;17.33;;;13.70;99.90;;;;;;4134229;34;20456;-88
2021/01/09 08:38:18;;;;;;;16.73;15.85;;;13.90;99.90;;;;;;4140203;34;20059;-86
2021/01/09 08:40:46;;;;;;;3.35;3.08;;;17.10;97.00;;;;;;4138914;34;20033;-86
2021/01/09 08:43:15;;;;;;;3.25;2.00;;;18.20;90.60;;;;;;4135824;34;20037;-85
2021/01/09 08:45:51;;;;;;;3.95;1.05;;;18.70;90.30;;;;;;4142246;34;20064;-85
2021/01/09 08:48:24;;;;;;;1.23;0.73;;;17.40;92.70;;;;;;4142567;34;20052;-86
2021/01/09 08:51:05;;;;;;;1.62;0.80;;;15.80;95.20;;;;;;4142568;34;20068;-85
2021/01/09 08:53:59;;;;;;;3.03;1.70;;;14.90;97.80;;;;;;4142251;34;20069;-88
2021/01/09 08:56:28;;;;;;;;;;;14.60;99.90;;;;;;4137203;34;20057;-92
2021/01/09 08:59:03;;;;;;;4.75;4.37;;;14.20;99.90;;;;;;4129402;34;19956;-88
2021/01/09 09:01:47;;;;;;;1.75;1.30;;;13.80;99.90;;;;;;4136882;34;20084;-84
2021/01/09 09:04:23;;;;;;;2.95;2.75;;;13.70;99.90;;;;;;4129147;34;20077;-87
2021/01/09 09:07:04;;;;;;;1.85;1.70;;;13.70;99.90;;;;;;4141393;34;20092;-85
2021/01/09 09:09:33;;;;;;;3.62;2.35;;;13.80;99.80;;;;;;4130474;34;20099;-88
2021/01/09 09:12:02;;;;;;;4.85;4.57;;;13.90;99.80;;;;;;4133207;34;20073;-87
2021/01/09 09:14:30;;;;;;;1.85;1.75;;;16.00;96.70;;;;;;4136837;34;20166;-89
2021/01/09 09:17:06;;;;;;;4.97;1.48;;;16.00;95.40;;;;;;4128517;34;20108;-86
2021/01/09 09:19:38;;;;;;;1.62;1.40;;;17.20;93.80;;;;;;4131465;34;20090;-86
2021/01/09 09:22:06;;;;;;;1.85;1.08;;;17.30;93.60;;;;;;4139825;34;20142;-88
2021/01/09 09:24:45;;;;;;;3.35;1.58;;;16.40;96.20;;;;;;4121756;34;20041;-89
2021/01/09 09:27:26;;;;;;;1.70;1.20;;;15.60;96.60;;;;;;4137207;34;20390;-88
2021/01/09 09:30:07;;;;;;;4.65;1.67;;;15.70;97.10;;;;;;4132094;34;20083;-90
2021/01/09 09:32:36;;;;;;;2.53;2.30;;;16.80;93.90;;;;;;4151851;34;20053;-87
2021/01/09 09:35:25;;;;;;;4.87;2.42;;;18.00;92.40;;;;;;4134489;34;20413;-88
2021/01/09 09:37:54;;;;;;;3.35;1.10;;;18.30;92.50;;;;;;4132409;34;20150;-85
2021/01/09 09:40:24;;;;;;;4.90;4.07;;;17.30;95.00;;;;;;4139520;34;20049;-87
2021/01/09 09:42:53;;;;;;;1.00;0.60;;;20.40;87.40;;;;;;4150137;34;20076;-89
2021/01/09 09:45:21;;;;;;;3.30;0.95;;;17.90;90.50;;;;;;4132695;34;20073;-84
2021/01/09 09:47:51;;;;;;;4.65;4.25;;;16.70;95.60;;;;;;4137285;34;20064;-89
2021/01/09 09:50:20;;;;;;;2.00;1.23;;;17.80;95.30;;;;;;4128790;34;20061;-86
2021/01/09 09:52:59;;;;;;;2.12;0.50;;;18.70;88.90;;;;;;4130407;34;20114;-90
2021/01/09 09:55:27;;;;;;;1.40;1.30;;;16.50;92.20;;;;;;4138894;34;20100;-85
2021/01/09 09:58:09;;;;;;;5.53;1.20;;;15.60;94.00;;;;;;4132578;34;20117;-92
2021/01/09 10:00:45;;;;;;;6.05;5.57;;;15.40;96.10;;;;;;4128612;34;20064;-87
2021/01/09 10:03:14;;;;;;;4.10;1.40;;;18.70;91.30;;;;;;4146537;34;20071;-90
2021/01/09 10:05:42;;;;;;;3.28;2.50;;;20.20;82.50;;;;;;4136411;34;20154;-87
2021/01/09 10:08:15;;;;;;;2.50;2.33;;;18.50;85.50;;;;;;4129858;34;20056;-91
2021/01/09 10:10:49;;;;;;;3.17;0.83;;;21.20;78.00;;;;;;4134683;34;20084;-87
2021/01/09 10:13:30;;;;;;;0.55;0.40;;;18.80;83.90;;;;;;4132616;34;20480;-89
2021/01/09 10:15:59;;;;;;;2.70;2.35;;;17.90;84.10;;;;;;4131085;34;20137;-87
2021/01/09 10:18:29;;;;;;;1.00;0.90;;;18.00;87.50;;;;;;4146334;34;20058;-87
2021/01/09 10:20:58;;;;;;;2.28;1.50;;;17.40;86.00;;;;;;4145640;34;20099;-89
2021/01/09 10:23:30;;;;;;;3.60;2.65;;;17.10;90.60;;;;;;4141872;34;20127;-88
2021/01/09 10:25:58;;;;;;;2.10;0.50;;;18.50;86.50;;;;;;4142691;34;20052;-90
2021/01/09 10:28:27;;;;;;;2.45;0.75;;;17.40;90.50;;;;;;4132756;34;20089;-86
2021/01/09 10:30:55;;;;;;;1.23;0.68;;;16.80;90.80;;;;;;4132144;34;20130;-91
2021/01/09 10:33:23;;;;;;;5.37;5.07;;;16.30;92.60;;;;;;4114692;34;20107;-89
2021/01/09 10:35:51;;;;;;;5.55;5.07;;;18.50;92.40;;;;;;4131484;34;20080;-90
2021/01/09 10:38:19;;;;;;;1.85;1.20;;;21.40;86.50;;;;;;4152247;28;20116;-88
2021/01/09 10:40:47;;;;;;;4.40;4.20;;;21.30;86.00;;;;;;4129576;34;20125;-91
2021/01/09 10:43:15;;;;;;;3.90;3.60;;;20.20;90.30;;;;;;4126783;34;20593;-89
2021/01/09 10:45:43;;;;;;;1.52;1.42;;;22.50;79.60;;;;;;4146350;34;20033;-91
2021/01/09 10:48:11;;;;;;;3.53;3.33;;;23.30;71.10;;;;;;4140466;34;20087;-86
2021/01/09 10:50:40;;;;;;;3.40;3.10;;;23.40;68.50;;;;;;4139526;34;20528;-86
2021/01/09 10:53:08;;;;;;;3.47;2.95;;;24.70;67.60;;;;;;4139606;34;20169;-90
2021/01/09 10:55:40;;;;;;;3.20;2.90;;;25.30;66.20;;;;;;4139479;34;20820;-86
2021/01/09 10:58:08;;;;;;;4.45;1.50;;;24.50;65.10;;;;;;4142863;34;20155;-86
2021/01/09 11:00:37;;;;;;;1.77;1.10;;;23.70;66.60;;;;;;4115383;34;20091;-86
2021/01/09 11:03:05;;;;;;;2.67;0.50;;;22.10;69.10;;;;;;4145158;34;20392;-88
2021/01/09 11:05:34;;;;;;;0.65;0.50;;;20.30;76.80;;;;;;4124787;34;20100;-89
2021/01/09 11:08:01;;;;;;;1.45;0.60;;;18.70;85.50;;;;;;4130182;34;20112;-88
2021/01/09 11:10:31;;;;;;;1.20;0.40;;;17.30;86.70;;;;;;4137536;34;20060;-90
2021/01/09 11:13:05;;;;;;;0.98;0.95;;;16.40;95.00;;;;;;4128641;34;20087;-89
2021/01/09 11:15:35;;;;;;;15.00;4.53;;;15.60;99.90;;;;;;4153254;34;20056;-89
2021/01/09 11:18:35;;;;;;;3.95;3.42;;;;;;;;;;4130844;34;20098;-87
2021/01/09 11:21:27;;;;;;;4.57;1.35;;;12.30;99.90;;;;;;4131861;34;20083;-90
2021/01/09 12:36:39;;;;;;;1.10;0.60;;;21.80;77.00;;;;;;4297080;28;20144;-86
2021/01/09 12:39:07;;;;;;;2.58;1.17;;;18.10;83.70;;;;;;4118088;34;20087;-90
2021/01/09 12:41:39;;;;;;;3.08;1.48;;;17.50;91.90;;;;;;4118250;34;20088;-90
2021/01/09 12:44:09;;;;;;;0.65;0.60;;;18.70;86.50;;;;;;4131285;34;20087;-87
2021/01/09 12:46:58;;;;;;;4.07;1.60;;;17.80;85.70;;;;;;4129721;34;20081;-86
2021/01/09 12:49:28;;;;;;;2.25;0.65;;;18.10;92.10;;;;;;4129663;34;20091;-89
2021/01/09 12:51:59;;;;;;;1.58;1.48;;;;;;;;;;4130854;34;20159;-91
2021/01/09 12:54:28;;;;;;;1.40;1.20;;;16.00;93.20;;;;;;4132104;34;20476;-85
2021/01/09 12:56:56;;;;;;;1.12;0.73;;;16.40;93.90;;;;;;4132912;34;20485;-89
2021/01/09 12:59:26;;;;;;;1.20;0.90;;;16.00;93.30;;;;;;4127278;34;20080;-90
2021/01/09 13:01:54;;;;;;;5.87;1.20;;;15.70;94.40;;;;;;4134753;34;20543;-87
2021/01/09 13:04:23;;;;;;;4.12;1.10;;;15.90;94.30;;;;;;4131182;34;20079;-86
2021/01/09 13:06:57;;;;;;;2.78;1.05;;;15.70;95.20;;;;;;4135619;34;20081;-90
2021/01/09 13:09:29;;;;;;;1.37;1.27;;;15.80;95.70;;;;;;4133490;34;20096;-89
2021/01/09 13:11:59;;;;;;;1.65;1.55;;;16.40;95.40;;;;;;4132986;34;20063;-85
2021/01/09 13:14:27;;;;;;;5.68;2.12;;;16.80;94.60;;;;;;4143790;34;20088;-85
2021/01/09 13:16:56;;;;;;;5.70;3.08;;;17.00;91.30;;;;;;4121144;34;20405;-89
2021/01/09 13:19:26;;;;;;;2.78;1.62;;;17.60;91.90;;;;;;4119337;34;20092;-89
2021/01/09 13:21:55;;;;;;;1.90;1.25;;;17.70;89.90;;;;;;4133395;34;20175;-85
2021/01/09 13:24:24;;;;;;;1.77;1.52;;;17.00;90.00;;;;;;4136716;34;20068;-87
2021/01/09 13:26:53;;;;;;;1.85;1.60;;;16.70;91.70;;;;;;4134743;34;20128;-89
2021/01/09 13:29:21;;;;;;;3.97;1.70;;;16.60;90.70;;;;;;4125787;34;20079;-89
2021/01/09 13:31:49;;;;;;;3.87;1.73;;;16.60;91.00;;;;;;4163507;29;20115;-84
2021/01/09 13:34:18;;;;;;;6.82;1.70;;;16.60;92.10;;;;;;4159533;34;20155;-87
2021/01/09 13:36:46;;;;;;;3.40;1.83;;;16.90;92.90;;;;;;4153621;34;20079;-88
2021/01/09 13:39:15;;;;;;;4.68;1.70;;;17.40;93.40;;;;;;4150589;34;20064;-85
2021/01/09 13:41:44;;;;;;;2.10;1.67;;;17.30;93.40;;;;;;4159343;34;20068;-86
2021/01/09 13:44:16;;;;;;;1.50;1.40;;;16.50;95.80;;;;;;4157113;34;20091;-84
2021/01/09 13:46:44;;;;;;;6.57;2.83;;;15.40;99.90;;;;;;4159792;34;20495;-86
2021/01/09 13:49:12;;;;;;;3.37;2.60;;;15.20;99.90;;;;;;4159561;34;20075;-88
2021/01/09 13:51:41;;;;;;;2.37;1.80;;;15.10;99.90;;;;;;4155976;34;20064;-90
2021/01/09 13:54:10;;;;;;;3.92;2.42;;;15.10;99.90;;;;;;4145799;34;20064;-86
2021/01/09 13:56:43;;;;;;;5.53;2.30;;;15.20;99.90;;;;;;4151970;34;20134;-88
2021/01/09 13:59:17;;;;;;;6.47;2.47;;;15.00;99.90;;;;;;4140125;34;20120;-87
2021/01/09 14:01:49;;;;;;;3.30;2.70;;;15.30;99.90;;;;;;4147738;34;20169;-85
2021/01/09 14:04:18;;;;;;;3.78;1.35;;;15.30;99.90;;;;;;4153042;34;20187;-85
2021/01/09 14:06:49;;;;;;;3.08;1.40;;;15.30;99.90;;;;;;4150986;34;20052;-86
2021/01/09 14:09:17;;;;;;;3.75;1.70;;;15.90;99.90;;;;;;4137859;34;20481;-86
2021/01/09 14:11:46;;;;;;;2.08;1.80;;;15.70;97.60;;;;;;4149239;34;20069;-85
2021/01/09 14:14:17;;;;;;;1.85;1.00;;;15.70;96.90;;;;;;4150260;34;20082;-91
2021/01/09 14:16:48;;;;;;;3.22;1.45;;;15.70;96.30;;;;;;4161501;34;20064;-84
2021/01/09 14:19:16;;;;;;;1.45;1.35;;;15.80;96.60;;;;;;4151422;34;20044;-86
2021/01/09 14:21:45;;;;;;;1.60;1.23;;;16.00;97.60;;;;;;4153538;34;20065;-85
2021/01/09 14:24:13;;;;;;;3.53;1.73;;;16.30;95.90;;;;;;4135345;34;20504;-85
2021/01/09 14:26:42;;;;;;;2.60;1.75;;;16.50;95.70;;;;;;4143188;34;20076;-85
2021/01/09 14:29:13;;;;;;;2.90;1.83;;;16.70;95.40;;;;;;4150076;34;20091;-86
2021/01/09 14:31:56;;;;;;;3.25;2.08;;;16.50;95.60;;;;;;4136927;34;20060;-86
2021/01/09 14:34:25;;;;;;;6.07;2.20;;;15.80;97.30;;;;;;4141083;34;20108;-87
2021/01/09 14:36:54;;;;;;;4.32;0.80;;;15.30;98.40;;;;;;4141058;34;20108;-86
2021/01/09 14:39:22;;;;;;;5.82;2.28;;;15.10;99.10;;;;;;4131247;34;20045;-93
2021/01/09 14:41:51;;;;;;;6.62;2.90;;;15.10;98.70;;;;;;4144309;34;20082;-87
2021/01/09 14:44:19;;;;;;;5.10;2.50;;;15.20;97.90;;;;;;4163781;34;20079;-89
2021/01/09 14:46:47;;;;;;;1.70;1.60;;;15.30;97.00;;;;;;4148616;34;20076;-88
2021/01/09 14:49:16;;;;;;;2.83;2.00;;;15.30;94.90;;;;;;4147084;34;20071;-87
2021/01/09 14:51:47;;;;;;;2.97;2.67;;;15.60;95.40;;;;;;4141322;34;20123;-86
2021/01/09 14:54:16;;;;;;;1.52;0.73;;;15.80;95.80;;;;;;4140151;34;20470;-87
2021/01/09 14:56:51;;;;;;;9.82;0.82;;;16.00;98.40;;;;;;4128386;34;20069;-87
2021/01/09 14:59:20;;;;;;;2.78;0.65;;;15.80;96.30;;;;;;4133884;34;20532;-87
2021/01/09 15:01:48;;;;;;;3.33;1.02;;;16.00;95.90;;;;;;4134137;34;20107;-87
2021/01/09 15:04:16;;;;;;;2.75;0.73;;;16.20;96.80;;;;;;4139170;34;20107;-87
2021/01/09 15:06:49;;;;;;;4.28;0.85;;;16.40;96.10;;;;;;4134808;34;20506;-88
2021/01/09 15:09:17;;;;;;;4.45;1.05;;;16.50;97.20;;;;;;4138659;34;20083;-87
2021/01/09 15:11:46;;;;;;;4.60;0.90;;;16.10;95.40;;;;;;4137785;34;20083;-86
2021/01/09 15:14:13;;;;;;;4.03;1.05;;;15.90;95.60;;;;;;4139608;34;20112;-87
2021/01/09 15:16:47;;;;;;;3.53;0.80;;;15.70;96.50;;;;;;4141944;34;20127;-87
2021/01/09 15:19:17;;;;;;;2.20;0.70;;;15.80;96.80;;;;;;4150695;34;20468;-87
2021/01/09 15:21:48;;;;;;;4.22;0.60;;;15.90;95.60;;;;;;4136183;34;20439;-88
2021/01/09 15:24:18;;;;;;;3.53;0.80;;;15.80;94.90;;;;;;4144545;34;20093;-88
2021/01/09 15:26:46;;;;;;;3.50;3.20;;;15.60;95.00;;;;;;4136941;34;20068;-88
2021/01/09 15:29:14;;;;;;;3.35;2.37;;;15.70;94.00;;;;;;4128597;34;20060;-89
2021/01/09 15:31:42;;;;;;;2.20;2.10;;;15.80;93.40;;;;;;4140311;34;20169;-88
2021/01/09 15:34:10;;;;;;;2.45;2.17;;;15.60;93.50;;;;;;4143417;34;20056;-88
2021/01/09 15:36:43;;;;;;;4.20;2.47;;;15.50;94.30;;;;;;4125942;34;20200;-88
2021/01/09 15:39:16;;;;;;;3.10;2.25;;;15.60;94.00;;;;;;4138141;34;20526;-87
2021/01/09 15:41:49;;;;;;;2.30;1.92;;;15.30;96.30;;;;;;4139199;34;20088;-86
2021/01/09 15:44:18;;;;;;;4.80;1.50;;;14.90;99.10;;;;;;4140204;34;20104;-87
2021/01/09 15:46:47;;;;;;;1.95;1.70;;;;;;;;;;4141483;34;20083;-86
2021/01/09 15:49:18;;;;;;;1.37;0.80;;;14.60;98.20;;;;;;4143843;34;20073;-87
2021/01/09 15:51:50;;;;;;;2.70;1.10;;;14.60;98.80;;;;;;4138125;34;20083;-87
2021/01/09 15:54:19;;;;;;;2.05;0.70;;;14.70;98.50;;;;;;4131233;34;20530;-88
2021/01/09 15:56:49;;;;;;;7.15;1.20;;;14.80;98.20;;;;;;4126461;34;20465;-87
2021/01/09 15:59:17;;;;;;;2.35;0.62;;;15.10;99.90;;;;;;4140542;34;20125;-86
2021/01/09 16:01:45;;;;;;;3.35;0.80;;;15.10;99.90;;;;;;4145954;34;20548;-85
2021/01/09 16:04:14;;;;;;;6.10;1.80;;;15.30;99.90;;;;;;4125069;34;20123;-84
2021/01/09 16:06:41;;;;;;;8.50;2.97;;;15.30;99.90;;;;;;4134986;34;20064;-84
2021/01/09 16:09:10;;;;;;;3.90;3.55;;;15.00;99.90;;;;;;4143338;34;20065;-86
2021/01/09 16:11:39;;;;;;;6.03;0.90;;;14.80;98.00;;;;;;4139181;34;20544;-86
2021/01/09 16:14:06;;;;;;;5.50;3.28;;;15.00;99.90;;;;;;4141380;34;20136;-85
2021/01/09 16:16:35;;;;;;;5.97;2.97;;;15.00;98.60;;;;;;4137382;34;20064;-85
2021/01/09 16:19:05;;;;;;;3.58;0.80;;;15.10;98.00;;;;;;4139365;34;20100;-85
2021/01/09 16:21:40;;;;;;;2.28;0.68;;;15.10;98.10;;;;;;4126780;34;20482;-85
2021/01/09 16:24:08;;;;;;;5.00;0.50;;;15.20;98.10;;;;;;4135682;34;20578;-85
2021/01/09 16:26:36;;;;;;;2.40;0.50;;;15.00;98.10;;;;;;4137570;34;20144;-86
2021/01/09 16:29:04;;;;;;;6.97;0.68;;;14.90;98.70;;;;;;4135668;34;20042;-85
2021/01/09 16:31:34;;;;;;;3.83;0.77;;;14.90;99.30;;;;;;4139080;34;20080;-85
2021/01/09 16:34:03;;;;;;;10.98;1.10;;;15.00;98.60;;;;;;4124011;34;20068;-87
2021/01/09 16:36:31;;;;;;;6.32;1.17;;;15.30;98.80;;;;;;4124672;34;20553;-85
2021/01/09 16:39:00;;;;;;;2.70;0.60;;;15.40;97.50;;;;;;4135239;34;20049;-86
2021/01/09 16:41:29;;;;;;;3.70;1.20;;;15.40;96.70;;;;;;4122936;34;20064;-85
2021/01/09 16:43:57;;;;;;;6.68;1.00;;;15.40;97.70;;;;;;4122889;34;20064;-86
2021/01/09 16:46:25;;;;;;;4.82;0.80;;;15.10;99.50;;;;;;4123454;34;20069;-84
2021/01/09 16:48:54;;;;;;;2.45;0.80;;;14.80;99.20;;;;;;4121358;34;20410;-85
2021/01/09 16:51:26;;;;;;;3.35;2.65;;;14.70;99.90;;;;;;4120406;34;20060;-85
2021/01/09 16:54:14;;;;;;;2.42;0.80;;;14.60;99.90;;;;;;4137813;34;20431;-85